sensor_id;sensor_type;location;lat;lon;timestamp;temperature;humidity
71879;DHT22;59755;43.834;4.364;2023-05-23T11:06:43;31.70;40.20
71879;DHT22;59755;43.834;4.364;2023-05-23T11:09:18;32.20;38.70
71879;DHT22;59755;43.834;4.364;2023-05-23T11:11:51;32.30;38.70
71879;DHT22;59755;43.834;4.364;2023-05-23T11:14:17;32.00;38.60
71879;DHT22;59755;43.834;4.364;2023-05-23T11:16:43;33.10;36.50
71879;DHT22;59755;43.834;4.364;2023-05-23T11:21:39;34.50;34.40
71879;DHT22;59755;43.834;4.364;2023-05-23T11:24:05;35.30;33.10
71879;DHT22;59755;43.834;4.364;2023-05-23T11:26:30;35.40;32.90
71879;DHT22;59755;43.834;4.364;2023-05-23T11:28:57;35.50;32.50
71879;DHT22;59755;43.834;4.364;2023-05-23T11:31:23;36.00;32.20
71879;DHT22;59755;43.834;4.364;2023-05-23T11:33:51;35.70;32.50
71879;DHT22;59755;43.834;4.364;2023-05-23T11:36:17;35.90;32.70
71879;DHT22;59755;43.834;4.364;2023-05-23T11:38:43;36.10;32.50
71879;DHT22;59755;43.834;4.364;2023-05-23T11:41:08;36.30;32.30
71879;DHT22;59755;43.834;4.364;2023-05-23T11:43:34;34.40;34.50
71879;DHT22;59755;43.834;4.364;2023-05-23T11:46:18;32.80;36.90
71879;DHT22;59755;43.834;4.364;2023-05-23T11:48:44;33.80;35.30
71879;DHT22;59755;43.834;4.364;2023-05-23T11:51:10;34.10;34.70
71879;DHT22;59755;43.834;4.364;2023-05-23T11:53:35;32.40;36.80
71879;DHT22;59755;43.834;4.364;2023-05-23T11:56:01;31.20;38.30
71879;DHT22;59755;43.834;4.364;2023-05-23T11:58:28;30.50;39.20
71879;DHT22;59755;43.834;4.364;2023-05-23T12:01:00;32.30;36.90
71879;DHT22;59755;43.834;4.364;2023-05-23T12:03:27;33.80;35.00
71879;DHT22;59755;43.834;4.364;2023-05-23T12:05:56;33.80;35.40
71879;DHT22;59755;43.834;4.364;2023-05-23T12:08:22;34.50;34.40
71879;DHT22;59755;43.834;4.364;2023-05-23T12:10:52;34.10;35.10
71879;DHT22;59755;43.834;4.364;2023-05-23T12:13:18;32.40;36.80
71879;DHT22;59755;43.834;4.364;2023-05-23T12:15:44;30.90;38.90
71879;DHT22;59755;43.834;4.364;2023-05-23T12:18:11;30.50;40.00
71879;DHT22;59755;43.834;4.364;2023-05-23T12:20:37;32.30;36.90
71879;DHT22;59755;43.834;4.364;2023-05-23T12:23:03;33.90;35.20
71879;DHT22;59755;43.834;4.364;2023-05-23T12:25:29;35.10;32.70
71879;DHT22;59755;43.834;4.364;2023-05-23T12:28:01;35.40;33.00
71879;DHT22;59755;43.834;4.364;2023-05-23T12:30:28;36.30;31.60
71879;DHT22;59755;43.834;4.364;2023-05-23T12:32:53;36.70;31.20
71879;DHT22;59755;43.834;4.364;2023-05-23T12:35:19;37.10;30.40
71879;DHT22;59755;43.834;4.364;2023-05-23T12:37:45;37.10;31.10
71879;DHT22;59755;43.834;4.364;2023-05-23T12:40:15;37.10;30.50
71879;DHT22;59755;43.834;4.364;2023-05-23T12:45:12;37.30;31.10
71879;DHT22;59755;43.834;4.364;2023-05-23T12:47:37;36.20;30.70
71879;DHT22;59755;43.834;4.364;2023-05-23T12:50:03;34.10;33.80
71879;DHT22;59755;43.834;4.364;2023-05-23T12:52:29;32.30;36.50
71879;DHT22;59755;43.834;4.364;2023-05-23T12:54:54;31.70;37.60
71879;DHT22;59755;43.834;4.364;2023-05-23T12:57:20;32.70;36.40
71879;DHT22;59755;43.834;4.364;2023-05-23T12:59:46;33.30;35.50
71879;DHT22;59755;43.834;4.364;2023-05-23T13:02:12;34.90;33.60
71879;DHT22;59755;43.834;4.364;2023-05-23T13:04:37;34.70;33.40
71879;DHT22;59755;43.834;4.364;2023-05-23T13:07:03;34.10;34.10
71879;DHT22;59755;43.834;4.364;2023-05-23T13:09:29;33.90;34.60
71879;DHT22;59755;43.834;4.364;2023-05-23T13:11:55;33.20;36.00
71879;DHT22;59755;43.834;4.364;2023-05-23T13:14:20;33.30;35.10
71879;DHT22;59755;43.834;4.364;2023-05-23T13:16:46;32.20;36.00
71879;DHT22;59755;43.834;4.364;2023-05-23T13:19:11;32.40;36.40
71879;DHT22;59755;43.834;4.364;2023-05-23T13:21:37;33.90;34.40
71879;DHT22;59755;43.834;4.364;2023-05-23T13:24:03;35.20;33.10
71879;DHT22;59755;43.834;4.364;2023-05-23T13:26:28;35.90;32.10
71879;DHT22;59755;43.834;4.364;2023-05-23T13:28:54;36.70;30.60
71879;DHT22;59755;43.834;4.364;2023-05-23T13:31:19;37.40;29.80
71879;DHT22;59755;43.834;4.364;2023-05-23T13:33:45;37.90;29.30
71879;DHT22;59755;43.834;4.364;2023-05-23T13:36:11;36.20;30.70
71879;DHT22;59755;43.834;4.364;2023-05-23T13:38:37;33.30;34.00
71879;DHT22;59755;43.834;4.364;2023-05-23T13:41:02;31.80;36.20
71879;DHT22;59755;43.834;4.364;2023-05-23T13:43:28;30.70;38.20
71879;DHT22;59755;43.834;4.364;2023-05-23T13:45:53;29.90;39.60
71879;DHT22;59755;43.834;4.364;2023-05-23T13:48:19;29.50;39.90
71879;DHT22;59755;43.834;4.364;2023-05-23T13:50:45;29.90;39.80
71879;DHT22;59755;43.834;4.364;2023-05-23T13:53:10;32.50;35.70
71879;DHT22;59755;43.834;4.364;2023-05-23T13:55:40;31.90;36.30
71879;DHT22;59755;43.834;4.364;2023-05-23T13:58:07;31.20;37.10
71879;DHT22;59755;43.834;4.364;2023-05-23T14:00:32;32.10;36.10
71879;DHT22;59755;43.834;4.364;2023-05-23T14:02:58;31.40;36.90
71879;DHT22;59755;43.834;4.364;2023-05-23T14:05:23;30.40;37.80
71879;DHT22;59755;43.834;4.364;2023-05-23T14:07:49;29.90;37.90
71879;DHT22;59755;43.834;4.364;2023-05-23T14:10:15;29.50;38.30
71879;DHT22;59755;43.834;4.364;2023-05-23T14:12:41;29.00;38.70
71879;DHT22;59755;43.834;4.364;2023-05-23T14:15:07;28.40;40.10
71879;DHT22;59755;43.834;4.364;2023-05-23T14:17:33;28.00;45.00
71879;DHT22;59755;43.834;4.364;2023-05-23T14:19:58;27.70;48.20
71879;DHT22;59755;43.834;4.364;2023-05-23T14:22:24;27.20;52.30
71879;DHT22;59755;43.834;4.364;2023-05-23T14:24:49;26.60;53.80
71879;DHT22;59755;43.834;4.364;2023-05-23T14:27:15;25.90;53.20
71879;DHT22;59755;43.834;4.364;2023-05-23T14:29:42;25.30;57.40
71879;DHT22;59755;43.834;4.364;2023-05-23T14:32:10;24.40;58.00
71879;DHT22;59755;43.834;4.364;2023-05-23T14:34:36;23.40;61.30
71879;DHT22;59755;43.834;4.364;2023-05-23T14:37:01;22.70;62.50
71879;DHT22;59755;43.834;4.364;2023-05-23T14:39:27;22.00;63.00
71879;DHT22;59755;43.834;4.364;2023-05-23T14:41:53;21.60;70.00
71879;DHT22;59755;43.834;4.364;2023-05-23T14:44:19;21.20;68.50
71879;DHT22;59755;43.834;4.364;2023-05-23T14:46:45;21.10;69.70
71879;DHT22;59755;43.834;4.364;2023-05-23T14:49:14;20.80;68.60
71879;DHT22;59755;43.834;4.364;2023-05-23T14:51:40;20.70;73.50
71879;DHT22;59755;43.834;4.364;2023-05-23T14:54:05;20.50;76.20
71879;DHT22;59755;43.834;4.364;2023-05-23T14:56:31;20.20;79.20
71879;DHT22;59755;43.834;4.364;2023-05-23T14:58:57;20.00;82.10
71879;DHT22;59755;43.834;4.364;2023-05-23T15:01:23;20.00;81.70
71879;DHT22;59755;43.834;4.364;2023-05-23T15:03:48;19.90;83.40
71879;DHT22;59755;43.834;4.364;2023-05-23T15:06:14;20.00;83.20
71879;DHT22;59755;43.834;4.364;2023-05-23T15:08:39;20.10;79.30
71879;DHT22;59755;43.834;4.364;2023-05-23T15:11:05;20.40;80.40
71879;DHT22;59755;43.834;4.364;2023-05-23T15:13:31;20.50;76.40
71879;DHT22;59755;43.834;4.364;2023-05-23T15:15:56;20.60;78.00
71879;DHT22;59755;43.834;4.364;2023-05-23T15:18:22;20.50;76.20
71879;DHT22;59755;43.834;4.364;2023-05-23T15:20:47;20.60;76.20
71879;DHT22;59755;43.834;4.364;2023-05-23T15:23:13;20.40;77.90
71879;DHT22;59755;43.834;4.364;2023-05-23T15:25:39;20.30;77.50
71879;DHT22;59755;43.834;4.364;2023-05-23T15:28:05;20.20;77.30
71879;DHT22;59755;43.834;4.364;2023-05-23T15:30:31;20.10;78.50
71879;DHT22;59755;43.834;4.364;2023-05-23T15:32:56;20.10;78.60
71879;DHT22;59755;43.834;4.364;2023-05-23T15:35:22;20.00;79.40
71879;DHT22;59755;43.834;4.364;2023-05-23T15:37:47;19.90;78.60
71879;DHT22;59755;43.834;4.364;2023-05-23T15:40:13;19.80;80.30
71879;DHT22;59755;43.834;4.364;2023-05-23T15:42:38;19.70;80.00
71879;DHT22;59755;43.834;4.364;2023-05-23T15:45:04;19.70;80.70
71879;DHT22;59755;43.834;4.364;2023-05-23T15:47:30;19.60;79.90
71879;DHT22;59755;43.834;4.364;2023-05-23T15:49:55;19.50;80.90
71879;DHT22;59755;43.834;4.364;2023-05-23T15:52:21;19.50;80.20
71879;DHT22;59755;43.834;4.364;2023-05-23T15:54:46;19.40;80.40
71879;DHT22;59755;43.834;4.364;2023-05-23T15:57:12;19.50;80.80
71879;DHT22;59755;43.834;4.364;2023-05-23T15:59:38;19.50;81.00
71879;DHT22;59755;43.834;4.364;2023-05-23T16:02:04;19.50;80.80
71879;DHT22;59755;43.834;4.364;2023-05-23T16:04:33;19.30;79.60
71879;DHT22;59755;43.834;4.364;2023-05-23T16:07:03;19.30;79.80
71879;DHT22;59755;43.834;4.364;2023-05-23T16:09:29;19.30;80.20
71879;DHT22;59755;43.834;4.364;2023-05-23T16:11:55;19.30;80.00
71879;DHT22;59755;43.834;4.364;2023-05-23T16:14:20;19.40;80.50
71879;DHT22;59755;43.834;4.364;2023-05-23T16:16:46;19.50;79.80
71879;DHT22;59755;43.834;4.364;2023-05-23T16:19:12;19.30;80.10
71879;DHT22;59755;43.834;4.364;2023-05-23T16:21:37;19.30;79.80
71879;DHT22;59755;43.834;4.364;2023-05-23T16:24:03;19.40;80.30
71879;DHT22;59755;43.834;4.364;2023-05-23T16:26:29;19.50;80.10
71879;DHT22;59755;43.834;4.364;2023-05-23T16:28:54;19.50;80.00
71879;DHT22;59755;43.834;4.364;2023-05-23T16:31:24;19.40;79.90
71879;DHT22;59755;43.834;4.364;2023-05-23T16:33:50;19.30;80.90
71879;DHT22;59755;43.834;4.364;2023-05-23T16:36:15;19.30;80.50
71879;DHT22;59755;43.834;4.364;2023-05-23T16:38:41;19.30;80.30
71879;DHT22;59755;43.834;4.364;2023-05-23T16:41:07;19.30;80.60
71879;DHT22;59755;43.834;4.364;2023-05-23T16:43:32;19.20;80.50
71879;DHT22;59755;43.834;4.364;2023-05-23T16:45:58;19.20;80.70
71879;DHT22;59755;43.834;4.364;2023-05-23T16:48:24;19.20;81.30
71879;DHT22;59755;43.834;4.364;2023-05-23T16:50:50;19.20;80.80
71879;DHT22;59755;43.834;4.364;2023-05-23T16:53:16;19.10;80.40
71879;DHT22;59755;43.834;4.364;2023-05-23T16:55:41;19.20;81.00
71879;DHT22;59755;43.834;4.364;2023-05-23T16:58:07;19.20;80.80
71879;DHT22;59755;43.834;4.364;2023-05-23T17:00:32;19.20;80.50
71879;DHT22;59755;43.834;4.364;2023-05-23T17:02:58;19.10;81.20
71879;DHT22;59755;43.834;4.364;2023-05-23T17:05:24;19.00;81.70
71879;DHT22;59755;43.834;4.364;2023-05-23T17:07:49;19.00;81.40
71879;DHT22;59755;43.834;4.364;2023-05-23T17:10:15;19.00;81.70
71879;DHT22;59755;43.834;4.364;2023-05-23T17:12:40;19.00;81.50
71879;DHT22;59755;43.834;4.364;2023-05-23T17:15:06;19.10;81.20
71879;DHT22;59755;43.834;4.364;2023-05-23T17:17:32;19.10;81.40
71879;DHT22;59755;43.834;4.364;2023-05-23T17:19:57;19.00;81.90
71879;DHT22;59755;43.834;4.364;2023-05-23T17:22:23;18.90;83.30
71879;DHT22;59755;43.834;4.364;2023-05-23T17:24:49;18.90;83.30
71879;DHT22;59755;43.834;4.364;2023-05-23T17:27:14;18.90;82.70
71879;DHT22;59755;43.834;4.364;2023-05-23T17:29:40;18.90;81.60
71879;DHT22;59755;43.834;4.364;2023-05-23T17:32:05;18.90;82.10
71879;DHT22;59755;43.834;4.364;2023-05-23T17:34:31;18.90;82.40
71879;DHT22;59755;43.834;4.364;2023-05-23T17:36:57;18.90;82.20
71879;DHT22;59755;43.834;4.364;2023-05-23T17:39:22;18.90;82.00
71879;DHT22;59755;43.834;4.364;2023-05-23T17:41:48;18.90;82.10
71879;DHT22;59755;43.834;4.364;2023-05-23T17:44:13;18.90;81.80
71879;DHT22;59755;43.834;4.364;2023-05-23T17:46:39;18.90;81.40
71879;DHT22;59755;43.834;4.364;2023-05-23T17:49:05;18.90;82.00
71879;DHT22;59755;43.834;4.364;2023-05-23T17:51:31;18.90;82.90
71879;DHT22;59755;43.834;4.364;2023-05-23T17:53:57;18.80;83.20
71879;DHT22;59755;43.834;4.364;2023-05-23T17:56:23;18.80;82.90
71879;DHT22;59755;43.834;4.364;2023-05-23T17:58:49;18.70;84.10
71879;DHT22;59755;43.834;4.364;2023-05-23T18:01:15;18.60;85.40
71879;DHT22;59755;43.834;4.364;2023-05-23T18:03:41;18.50;86.20
71879;DHT22;59755;43.834;4.364;2023-05-23T18:06:06;18.40;86.00
71879;DHT22;59755;43.834;4.364;2023-05-23T18:08:32;18.50;86.80
71879;DHT22;59755;43.834;4.364;2023-05-23T18:10:58;18.50;86.30
71879;DHT22;59755;43.834;4.364;2023-05-23T18:13:24;18.60;85.90
71879;DHT22;59755;43.834;4.364;2023-05-23T18:15:49;18.60;86.20
71879;DHT22;59755;43.834;4.364;2023-05-23T18:18:15;18.60;85.90
71879;DHT22;59755;43.834;4.364;2023-05-23T18:20:41;18.60;84.80
71879;DHT22;59755;43.834;4.364;2023-05-23T18:23:07;18.60;85.30
71879;DHT22;59755;43.834;4.364;2023-05-23T18:25:33;18.60;85.00
71879;DHT22;59755;43.834;4.364;2023-05-23T18:27:58;18.70;85.90
71879;DHT22;59755;43.834;4.364;2023-05-23T18:30:25;18.60;85.10
71879;DHT22;59755;43.834;4.364;2023-05-23T18:32:51;18.70;84.70
71879;DHT22;59755;43.834;4.364;2023-05-23T18:35:17;18.70;85.00
71879;DHT22;59755;43.834;4.364;2023-05-23T18:37:43;18.70;86.10
71879;DHT22;59755;43.834;4.364;2023-05-23T18:40:08;18.60;86.50
71879;DHT22;59755;43.834;4.364;2023-05-23T18:42:34;18.70;85.60
71879;DHT22;59755;43.834;4.364;2023-05-23T18:45:00;18.70;86.10
71879;DHT22;59755;43.834;4.364;2023-05-23T18:47:25;18.60;86.50
71879;DHT22;59755;43.834;4.364;2023-05-23T18:49:51;18.60;86.90
71879;DHT22;59755;43.834;4.364;2023-05-23T18:52:18;18.60;87.00
71879;DHT22;59755;43.834;4.364;2023-05-23T18:54:43;18.50;86.50
71879;DHT22;59755;43.834;4.364;2023-05-23T18:57:09;18.50;87.30
71879;DHT22;59755;43.834;4.364;2023-05-23T18:59:35;18.60;87.50
71879;DHT22;59755;43.834;4.364;2023-05-23T19:02:00;18.50;87.50
71879;DHT22;59755;43.834;4.364;2023-05-23T19:04:26;18.50;87.90
71879;DHT22;59755;43.834;4.364;2023-05-23T19:06:52;18.60;88.00
71879;DHT22;59755;43.834;4.364;2023-05-23T19:09:18;18.60;87.40
71879;DHT22;59755;43.834;4.364;2023-05-23T19:11:43;18.70;87.10
71879;DHT22;59755;43.834;4.364;2023-05-23T19:14:09;18.70;87.10
71879;DHT22;59755;43.834;4.364;2023-05-23T19:16:35;18.70;86.50
71879;DHT22;59755;43.834;4.364;2023-05-23T19:19:01;18.80;87.00
71879;DHT22;59755;43.834;4.364;2023-05-23T19:21:27;18.70;86.80
71879;DHT22;59755;43.834;4.364;2023-05-23T19:23:53;18.70;86.60
71879;DHT22;59755;43.834;4.364;2023-05-23T19:26:18;18.70;87.10
71879;DHT22;59755;43.834;4.364;2023-05-23T19:28:44;18.70;85.00
71879;DHT22;59755;43.834;4.364;2023-05-23T19:31:10;18.70;84.60
71879;DHT22;59755;43.834;4.364;2023-05-23T19:33:36;18.80;84.50
71879;DHT22;59755;43.834;4.364;2023-05-23T19:36:03;18.80;83.80
71879;DHT22;59755;43.834;4.364;2023-05-23T19:38:28;18.80;84.10
71879;DHT22;59755;43.834;4.364;2023-05-23T19:40:54;18.80;83.90
71879;DHT22;59755;43.834;4.364;2023-05-23T19:43:20;18.80;83.20
71879;DHT22;59755;43.834;4.364;2023-05-23T19:45:45;18.90;83.30
71879;DHT22;59755;43.834;4.364;2023-05-23T19:48:11;18.80;84.20
71879;DHT22;59755;43.834;4.364;2023-05-23T19:50:36;18.80;82.40
71879;DHT22;59755;43.834;4.364;2023-05-23T19:53:03;18.80;82.70
71879;DHT22;59755;43.834;4.364;2023-05-23T19:55:29;18.80;82.40
71879;DHT22;59755;43.834;4.364;2023-05-23T19:57:54;18.80;83.50
71879;DHT22;59755;43.834;4.364;2023-05-23T20:00:20;18.70;83.00
71879;DHT22;59755;43.834;4.364;2023-05-23T20:02:45;18.80;82.30
71879;DHT22;59755;43.834;4.364;2023-05-23T20:05:11;18.80;82.20
71879;DHT22;59755;43.834;4.364;2023-05-23T20:07:37;18.80;81.90
71879;DHT22;59755;43.834;4.364;2023-05-23T20:10:04;18.80;81.90
71879;DHT22;59755;43.834;4.364;2023-05-23T20:12:30;18.80;81.80
71879;DHT22;59755;43.834;4.364;2023-05-23T20:14:55;18.80;81.10
71879;DHT22;59755;43.834;4.364;2023-05-23T20:17:21;18.80;81.30
71879;DHT22;59755;43.834;4.364;2023-05-23T20:19:47;18.80;81.80
71879;DHT22;59755;43.834;4.364;2023-05-23T20:22:13;18.80;81.30
71879;DHT22;59755;43.834;4.364;2023-05-23T20:24:38;18.80;81.40
71879;DHT22;59755;43.834;4.364;2023-05-23T20:27:05;18.80;81.10
71879;DHT22;59755;43.834;4.364;2023-05-23T20:29:31;18.80;80.00
71879;DHT22;59755;43.834;4.364;2023-05-23T20:32:01;18.80;80.30
71879;DHT22;59755;43.834;4.364;2023-05-23T20:34:27;18.80;80.80
71879;DHT22;59755;43.834;4.364;2023-05-23T20:36:53;18.80;80.60
71879;DHT22;59755;43.834;4.364;2023-05-23T20:39:18;18.80;81.00
71879;DHT22;59755;43.834;4.364;2023-05-23T20:41:45;18.80;81.40
71879;DHT22;59755;43.834;4.364;2023-05-23T20:44:10;18.70;81.40
71879;DHT22;59755;43.834;4.364;2023-05-23T20:46:36;18.70;82.10
71879;DHT22;59755;43.834;4.364;2023-05-23T20:49:07;18.60;82.60
71879;DHT22;59755;43.834;4.364;2023-05-23T20:51:34;18.60;82.10
71879;DHT22;59755;43.834;4.364;2023-05-23T20:53:59;18.60;81.50
71879;DHT22;59755;43.834;4.364;2023-05-23T20:56:25;18.70;80.80
71879;DHT22;59755;43.834;4.364;2023-05-23T20:58:51;18.70;81.00
71879;DHT22;59755;43.834;4.364;2023-05-23T21:01:17;18.70;80.50
71879;DHT22;59755;43.834;4.364;2023-05-23T21:03:42;18.80;80.80
71879;DHT22;59755;43.834;4.364;2023-05-23T21:06:08;18.70;80.60
71879;DHT22;59755;43.834;4.364;2023-05-23T21:08:33;18.70;80.40
71879;DHT22;59755;43.834;4.364;2023-05-23T21:10:59;18.70;80.80
71879;DHT22;59755;43.834;4.364;2023-05-23T21:13:24;18.70;80.80
71879;DHT22;59755;43.834;4.364;2023-05-23T21:15:50;18.60;81.50
71879;DHT22;59755;43.834;4.364;2023-05-23T21:18:16;18.60;81.60
71879;DHT22;59755;43.834;4.364;2023-05-23T21:20:41;18.60;81.20
71879;DHT22;59755;43.834;4.364;2023-05-23T21:23:07;18.70;81.10
71879;DHT22;59755;43.834;4.364;2023-05-23T21:25:32;18.60;81.60
71879;DHT22;59755;43.834;4.364;2023-05-23T21:27:58;18.50;81.60
71879;DHT22;59755;43.834;4.364;2023-05-23T21:30:24;18.50;81.60
71879;DHT22;59755;43.834;4.364;2023-05-23T21:32:49;18.50;81.80
71879;DHT22;59755;43.834;4.364;2023-05-23T21:35:16;18.50;81.20
71879;DHT22;59755;43.834;4.364;2023-05-23T21:37:42;18.50;82.10
71879;DHT22;59755;43.834;4.364;2023-05-23T21:40:07;18.40;82.70
71879;DHT22;59755;43.834;4.364;2023-05-23T21:42:33;18.40;82.70
71879;DHT22;59755;43.834;4.364;2023-05-23T21:44:59;18.30;81.90
71879;DHT22;59755;43.834;4.364;2023-05-23T21:47:24;18.30;82.80
71879;DHT22;59755;43.834;4.364;2023-05-23T21:49:50;18.30;83.70
71879;DHT22;59755;43.834;4.364;2023-05-23T21:52:16;18.30;83.60
71879;DHT22;59755;43.834;4.364;2023-05-23T21:54:41;18.20;83.30
71879;DHT22;59755;43.834;4.364;2023-05-23T21:57:07;18.30;83.60
71879;DHT22;59755;43.834;4.364;2023-05-23T21:59:32;18.30;83.40
71879;DHT22;59755;43.834;4.364;2023-05-23T22:01:58;18.30;83.40
71879;DHT22;59755;43.834;4.364;2023-05-23T22:04:24;18.30;83.80
71879;DHT22;59755;43.834;4.364;2023-05-23T22:06:49;18.30;83.90
71879;DHT22;59755;43.834;4.364;2023-05-23T22:09:16;18.20;84.40
71879;DHT22;59755;43.834;4.364;2023-05-23T22:11:42;18.10;84.30
71879;DHT22;59755;43.834;4.364;2023-05-23T22:14:08;18.20;84.60
71879;DHT22;59755;43.834;4.364;2023-05-23T22:16:34;18.10;84.90
71879;DHT22;59755;43.834;4.364;2023-05-23T22:19:03;18.10;84.80
71879;DHT22;59755;43.834;4.364;2023-05-23T22:21:29;18.00;84.70
71879;DHT22;59755;43.834;4.364;2023-05-23T22:23:55;18.00;84.50
71879;DHT22;59755;43.834;4.364;2023-05-23T22:26:22;18.00;84.70
71879;DHT22;59755;43.834;4.364;2023-05-23T22:28:47;18.00;85.20
71879;DHT22;59755;43.834;4.364;2023-05-23T22:31:13;18.00;84.90
71879;DHT22;59755;43.834;4.364;2023-05-23T22:33:42;18.00;85.10
71879;DHT22;59755;43.834;4.364;2023-05-23T22:36:08;17.90;85.50
71879;DHT22;59755;43.834;4.364;2023-05-23T22:38:34;17.90;85.30
71879;DHT22;59755;43.834;4.364;2023-05-23T22:41:00;17.90;84.90
71879;DHT22;59755;43.834;4.364;2023-05-23T22:43:27;17.90;84.80
71879;DHT22;59755;43.834;4.364;2023-05-23T22:45:53;17.90;84.70
71879;DHT22;59755;43.834;4.364;2023-05-23T22:48:19;17.90;85.10
71879;DHT22;59755;43.834;4.364;2023-05-23T22:50:44;17.90;84.80
71879;DHT22;59755;43.834;4.364;2023-05-23T22:53:10;17.90;84.90
71879;DHT22;59755;43.834;4.364;2023-05-23T22:55:37;17.80;85.20
71879;DHT22;59755;43.834;4.364;2023-05-23T22:58:03;17.90;84.90
71879;DHT22;59755;43.834;4.364;2023-05-23T23:00:28;17.90;84.00
71879;DHT22;59755;43.834;4.364;2023-05-23T23:02:54;17.90;83.70
71879;DHT22;59755;43.834;4.364;2023-05-23T23:05:20;17.90;84.00
71879;DHT22;59755;43.834;4.364;2023-05-23T23:07:46;17.90;83.40
71879;DHT22;59755;43.834;4.364;2023-05-23T23:10:12;18.10;82.40
71879;DHT22;59755;43.834;4.364;2023-05-23T23:12:37;18.20;82.10
71879;DHT22;59755;43.834;4.364;2023-05-23T23:15:04;18.20;82.00
71879;DHT22;59755;43.834;4.364;2023-05-23T23:17:29;18.20;81.10
71879;DHT22;59755;43.834;4.364;2023-05-23T23:19:55;18.20;81.00
71879;DHT22;59755;43.834;4.364;2023-05-23T23:22:22;18.30;81.40
71879;DHT22;59755;43.834;4.364;2023-05-23T23:24:47;18.30;80.40
71879;DHT22;59755;43.834;4.364;2023-05-23T23:27:13;18.30;80.30
71879;DHT22;59755;43.834;4.364;2023-05-23T23:29:38;18.30;80.50
71879;DHT22;59755;43.834;4.364;2023-05-23T23:32:04;18.30;80.30
71879;DHT22;59755;43.834;4.364;2023-05-23T23:34:30;18.30;79.60
71879;DHT22;59755;43.834;4.364;2023-05-23T23:36:55;18.40;79.70
71879;DHT22;59755;43.834;4.364;2023-05-23T23:39:21;18.40;79.60
71879;DHT22;59755;43.834;4.364;2023-05-23T23:41:47;18.40;79.30
71879;DHT22;59755;43.834;4.364;2023-05-23T23:44:13;18.40;79.70
71879;DHT22;59755;43.834;4.364;2023-05-23T23:46:38;18.40;78.80
71879;DHT22;59755;43.834;4.364;2023-05-23T23:49:04;18.50;78.70
71879;DHT22;59755;43.834;4.364;2023-05-23T23:51:29;18.50;78.40
71879;DHT22;59755;43.834;4.364;2023-05-23T23:53:56;18.50;77.90
71879;DHT22;59755;43.834;4.364;2023-05-23T23:56:22;18.50;78.10
71879;DHT22;59755;43.834;4.364;2023-05-23T23:58:49;18.50;78.30
